createdAt,value
2018-11-22T12:17:55.121Z,53.97
2018-11-22T12:20:26.832Z,63.83
2018-11-22T12:22:58.730Z,58.97
2018-11-22T12:25:30.598Z,53.17
2018-11-22T12:28:02.970Z,68.73
2018-11-22T12:30:35.386Z,79.60
2018-11-22T12:33:37.667Z,72.80
2018-11-22T12:36:14.478Z,57.63
2018-11-22T12:38:47.414Z,52.87
2018-11-22T12:41:19.334Z,51.83
2018-11-22T12:43:50.792Z,53.13
2018-11-22T12:46:22.758Z,50.37
2018-11-22T12:48:54.327Z,58.83
2018-11-22T12:51:25.648Z,51.97
2018-11-22T12:53:57.904Z,68.77
2018-11-22T12:56:29.637Z,55.13
2018-11-22T12:59:01.134Z,48.23
2018-11-22T13:01:32.979Z,56.73
2018-11-22T13:04:04.286Z,52.67
2018-11-22T13:06:35.905Z,53.53
2018-11-22T13:09:09.992Z,46.87
2018-11-22T13:11:41.750Z,50.97
2018-11-22T13:14:14.057Z,45.73
2018-11-22T13:16:45.279Z,49.73
2018-11-22T13:19:17.364Z,50.80
2018-11-22T13:21:48.909Z,47.47
2018-11-22T13:24:21.166Z,44.50
2018-11-22T13:26:53.598Z,46.60
2018-11-22T13:29:25.175Z,49.70
2018-11-22T13:31:56.876Z,53.53
2018-11-22T13:34:28.637Z,48.67
2018-11-22T13:37:00.195Z,45.57
2018-11-22T13:39:31.979Z,44.97
2018-11-22T13:42:03.482Z,46.27
2018-11-22T13:44:35.497Z,50.60
2018-11-22T13:47:06.901Z,54.70
2018-11-22T13:49:38.310Z,59.33
2018-11-22T13:52:10.905Z,58.40
2018-11-22T13:54:42.296Z,57.40
2018-11-22T13:57:14.209Z,57.30
2018-11-22T13:59:45.915Z,53.30
2018-11-22T14:02:19.128Z,52.27
2018-11-22T14:04:50.506Z,62.47
2018-11-22T14:07:22.182Z,71.63
2018-11-22T14:09:57.872Z,64.20
2018-11-22T14:12:29.000Z,58.30
2018-11-22T14:15:00.526Z,59.80
2018-11-22T14:17:31.750Z,59.90
2018-11-22T14:20:03.152Z,53.67
2018-11-22T14:22:34.364Z,55.50
2018-11-22T14:25:06.319Z,51.27
2018-11-22T14:27:38.513Z,50.33
2018-11-22T14:30:12.658Z,52.20
2018-11-22T14:32:44.519Z,49.47
2018-11-22T14:35:17.085Z,49.90
2018-11-22T14:37:48.243Z,51.17
2018-11-22T14:40:24.507Z,52.07
2018-11-22T14:42:56.387Z,49.80
2018-11-22T14:45:28.465Z,44.33
2018-11-22T14:48:01.074Z,51.93
2018-11-22T14:50:40.711Z,49.07
2018-11-22T14:53:18.178Z,57.17
2018-11-22T14:55:49.678Z,71.27
2018-11-22T14:58:21.094Z,62.77
2018-11-22T15:00:52.640Z,62.73
2018-11-22T15:03:24.110Z,61.87
2018-11-22T15:05:55.330Z,73.07
2018-11-22T15:08:26.567Z,66.70
2018-11-22T15:10:58.106Z,68.97
2018-11-22T15:13:29.652Z,62.17
2018-11-22T15:16:01.151Z,56.30
2018-11-22T15:18:32.483Z,49.97
2018-11-22T15:21:04.247Z,44.83
2018-11-22T15:23:36.111Z,48.77
2018-11-22T15:26:07.579Z,53.03
2018-11-22T15:28:39.293Z,48.53
2018-11-22T15:31:10.292Z,53.03
2018-11-22T15:33:42.592Z,45.77
2018-11-22T15:36:14.248Z,49.30
2018-11-22T15:38:46.110Z,52.33
2018-11-22T15:41:17.444Z,48.03
2018-11-22T15:43:48.761Z,52.60
2018-11-22T15:46:20.533Z,54.00
2018-11-22T15:48:52.121Z,62.03
2018-11-22T15:51:24.803Z,52.77
2018-11-22T15:53:57.473Z,48.53
2018-11-22T15:56:29.572Z,41.97
2018-11-22T15:59:01.019Z,84.33
2018-11-22T16:01:32.572Z,63.30
2018-11-22T16:04:04.456Z,50.67
2018-11-22T16:06:36.069Z,50.20
2018-11-22T16:09:10.857Z,56.13
2018-11-22T16:11:42.879Z,60.83
2018-11-22T16:14:14.519Z,51.77
2018-11-22T16:16:45.721Z,59.80
2018-11-22T16:19:17.487Z,51.67
2018-11-22T16:21:49.286Z,57.07
2018-11-22T16:24:20.592Z,54.80
2018-11-22T16:26:52.043Z,59.63
2018-11-22T16:29:23.499Z,56.37
2018-11-22T16:31:54.825Z,72.33
2018-11-22T16:34:26.172Z,61.10
2018-11-22T16:36:57.627Z,69.67
2018-11-22T16:39:29.001Z,67.83
2018-11-22T16:42:00.497Z,75.93
2018-11-22T16:44:32.080Z,73.27
2018-11-22T16:47:03.515Z,78.13
2018-11-22T16:49:35.046Z,76.50
2018-11-22T16:52:06.626Z,86.93
2018-11-22T16:54:38.657Z,75.60
2018-11-22T16:57:10.139Z,64.23
2018-11-22T16:59:41.558Z,56.13
2018-11-22T17:02:13.126Z,49.70
2018-11-22T17:04:44.860Z,59.87
2018-11-22T17:07:16.624Z,65.03
2018-11-22T17:09:48.067Z,53.00
2018-11-22T17:12:19.444Z,56.03
2018-11-22T17:14:51.425Z,65.53
2018-11-22T17:17:22.903Z,56.97
2018-11-22T17:19:54.639Z,56.33
2018-11-22T17:22:25.994Z,62.57
2018-11-22T17:24:57.522Z,59.97
2018-11-22T17:27:29.099Z,75.30
2018-11-22T17:30:00.515Z,75.73
2018-11-22T17:32:31.809Z,73.27
2018-11-22T17:35:03.090Z,75.13
2018-11-22T17:37:35.697Z,77.70
2018-11-22T17:40:16.122Z,75.90
2018-11-22T17:42:48.237Z,77.03
2018-11-22T17:45:23.281Z,79.40
2018-11-22T17:47:54.661Z,67.20
2018-11-22T17:50:29.630Z,78.13
2018-11-22T17:53:01.409Z,78.17
2018-11-22T17:55:33.369Z,73.27
2018-11-22T17:58:05.114Z,80.13
2018-11-22T18:00:40.187Z,78.30
2018-11-22T18:03:12.003Z,76.50
2018-11-22T18:05:43.463Z,84.90
2018-11-22T18:08:15.099Z,78.93
2018-11-22T18:10:46.396Z,123.90
2018-11-22T18:13:18.313Z,73.27
2018-11-22T18:15:54.705Z,78.93
2018-11-22T18:18:27.549Z,76.70
2018-11-22T18:20:59.095Z,76.00
2018-11-22T18:23:30.798Z,93.20
2018-11-22T18:26:02.217Z,94.53
2018-11-22T18:28:33.578Z,106.40
2018-11-22T18:31:05.292Z,125.53
2018-11-22T18:33:37.581Z,116.33
2018-11-22T18:36:09.003Z,150.27
2018-11-22T18:38:40.574Z,190.43
2018-11-22T18:41:12.147Z,153.80
2018-11-22T18:43:43.619Z,141.37
2018-11-22T18:46:14.991Z,273.73
2018-11-22T18:48:46.324Z,223.53
2018-11-22T18:51:17.891Z,391.20
2018-11-22T18:53:49.639Z,267.87
2018-11-22T18:56:21.087Z,172.77
2018-11-22T18:58:53.186Z,226.47
2018-11-22T19:01:24.975Z,376.63
2018-11-22T19:03:56.618Z,390.47
2018-11-22T19:06:29.283Z,368.57
2018-11-22T19:09:00.906Z,406.03
2018-11-22T19:11:32.534Z,279.30
2018-11-22T19:14:04.127Z,196.73
2018-11-22T19:16:35.374Z,228.67
2018-11-22T19:19:07.019Z,288.80
2018-11-22T19:21:41.112Z,272.70
2018-11-22T19:24:10.353Z,180.70
2018-11-22T19:26:42.175Z,170.43
2018-11-22T19:29:13.718Z,132.60
2018-11-22T19:31:45.170Z,168.97
2018-11-22T19:34:16.458Z,185.53
2018-11-22T19:36:47.992Z,139.60
2018-11-22T19:39:19.543Z,122.53
2018-11-22T19:41:51.062Z,146.37
2018-11-22T19:44:22.632Z,144.77
2018-11-22T19:46:53.926Z,152.20
2018-11-22T19:49:25.453Z,133.20
2018-11-22T19:51:57.478Z,93.23
2018-11-22T19:54:29.329Z,124.93
2018-11-22T19:57:01.135Z,106.77
2018-11-22T19:59:33.823Z,137.13
2018-11-22T20:02:05.579Z,152.60
2018-11-22T20:04:36.803Z,129.70
2018-11-22T20:07:08.548Z,121.63
2018-11-22T20:09:40.262Z,99.90
2018-11-22T20:12:12.298Z,108.00
2018-11-22T20:14:44.972Z,96.00
2018-11-22T20:17:16.248Z,79.63
2018-11-22T20:19:47.763Z,92.83
2018-11-22T20:22:19.609Z,86.70
2018-11-22T20:24:51.464Z,86.80
2018-11-22T20:27:24.210Z,83.43
2018-11-22T20:29:55.547Z,97.00
2018-11-22T20:32:27.957Z,96.93
2018-11-22T20:34:59.615Z,88.73
2018-11-22T20:37:31.053Z,72.27
2018-11-22T20:40:02.423Z,96.37
2018-11-22T20:42:33.837Z,79.30
2018-11-22T20:45:05.700Z,89.73
2018-11-22T20:47:37.593Z,86.20
2018-11-22T20:50:12.043Z,80.97
2018-11-22T20:52:43.935Z,100.70
2018-11-22T20:55:19.900Z,91.40
2018-11-22T20:57:52.771Z,90.47
2018-11-22T21:00:28.906Z,100.10
2018-11-22T21:03:00.861Z,101.67
2018-11-22T21:05:33.355Z,90.97
2018-11-22T21:08:04.889Z,78.93
2018-11-22T21:10:36.373Z,90.03
2018-11-22T21:13:08.004Z,103.13
2018-11-22T21:15:39.512Z,81.47
2018-11-22T21:18:11.018Z,93.70
2018-11-22T21:20:42.927Z,89.77
2018-11-22T21:23:14.601Z,87.50
2018-11-22T21:25:46.517Z,135.43
2018-11-22T21:28:18.270Z,83.50
2018-11-22T21:30:50.235Z,91.33
2018-11-22T21:33:21.838Z,94.87
2018-11-22T21:35:53.676Z,107.60
2018-11-22T21:38:25.685Z,93.07
2018-11-22T21:40:57.333Z,88.20
2018-11-22T21:43:29.670Z,88.70
2018-11-22T21:46:01.373Z,87.07
2018-11-22T21:48:32.945Z,86.53
2018-11-22T21:51:04.802Z,82.23
2018-11-22T21:53:36.165Z,86.70
2018-11-22T21:56:07.911Z,80.17
2018-11-22T21:58:39.416Z,83.00
2018-11-22T22:01:11.152Z,83.30
2018-11-22T22:03:42.458Z,79.00
2018-11-22T22:06:14.270Z,87.07
2018-11-22T22:08:45.511Z,83.63
2018-11-22T22:11:17.021Z,124.87
2018-11-22T22:13:48.514Z,109.43
2018-11-22T22:16:19.915Z,91.00
2018-11-22T22:18:51.548Z,89.03
2018-11-22T22:21:22.938Z,92.63
2018-11-22T22:23:54.720Z,88.60
2018-11-22T22:26:26.167Z,90.50
2018-11-22T22:28:57.552Z,86.37
2018-11-22T22:31:29.070Z,92.57
2018-11-22T22:34:01.356Z,101.33
2018-11-22T22:36:32.688Z,91.57
2018-11-22T22:39:05.395Z,88.30
2018-11-22T22:41:37.149Z,73.97
2018-11-22T22:44:08.933Z,71.27
2018-11-22T22:46:40.567Z,73.17
2018-11-22T22:49:12.062Z,76.23
2018-11-22T22:51:43.891Z,69.10
2018-11-22T22:54:15.530Z,89.33
2018-11-22T22:56:47.139Z,85.43
2018-11-22T22:59:18.659Z,84.00
2018-11-22T23:01:50.771Z,85.97
2018-11-22T23:04:22.207Z,87.43
2018-11-22T23:06:53.824Z,87.57
2018-11-22T23:09:25.155Z,80.97
2018-11-22T23:11:56.744Z,78.93
2018-11-22T23:14:28.431Z,77.90
2018-11-22T23:17:00.411Z,88.30
2018-11-22T23:19:32.149Z,90.30
2018-11-22T23:22:03.669Z,85.83
2018-11-22T23:24:35.285Z,79.97
2018-11-22T23:27:06.853Z,83.67
2018-11-22T23:29:38.102Z,75.23
2018-11-22T23:32:09.514Z,81.13
2018-11-22T23:34:41.210Z,82.13
2018-11-22T23:37:13.255Z,81.20
2018-11-22T23:39:44.727Z,75.53
2018-11-22T23:42:16.184Z,80.43
2018-11-22T23:44:47.806Z,81.57
2018-11-22T23:47:19.459Z,102.67
2018-11-22T23:49:50.813Z,112.20
2018-11-22T23:52:22.109Z,113.90
2018-11-22T23:54:54.210Z,127.43
2018-11-22T23:57:26.206Z,100.37
2018-11-22T23:59:57.909Z,107.83
